Time;durP1;ratioP1;P1;durP2;ratioP2;P2;SDS_P1;SDS_P2;PMS_P1;PMS_P2;Temp;Humidity;BMP_temperature;BMP_pressure;BME280_temperature;BME280_humidity;BME280_pressure;Samples;Min_cycle;Max_cycle;Signal;HPM_P1;HPM_P2
2023/01/27 00:00:38;;;;;;;26.50;9.87;;;1.70;99.90;;;;;;4973611;28;20212;-74
2023/01/27 00:03:05;;;;;;;26.50;10.90;;;1.80;99.90;;;;;;4966632;28;20217;-74
2023/01/27 00:05:32;;;;;;;28.43;11.50;;;1.70;99.90;;;;;;4973747;28;20209;-74
2023/01/27 00:07:58;;;;;;;27.83;11.00;;;1.70;99.90;;;;;;4973602;28;20220;-74
2023/01/27 00:10:26;;;;;;;29.23;11.13;;;1.80;99.90;;;;;;4975630;28;20201;-74
2023/01/27 00:15:39;;;;;;;24.73;9.50;;;1.80;99.90;;;;;;4962796;28;20236;-74
2023/01/27 00:18:06;;;;;;;24.80;9.43;;;1.80;99.90;;;;;;4975893;28;20201;-74
2023/01/27 00:26:06;;;;;;;28.00;10.63;;;1.90;99.90;;;;;;4974930;28;20259;-74
2023/01/27 00:28:35;;;;;;;31.63;10.70;;;1.80;99.90;;;;;;4975484;28;20197;-74
2023/01/27 00:31:02;;;;;;;24.43;9.60;;;1.90;99.90;;;;;;4975062;28;20198;-74
2023/01/27 00:33:28;;;;;;;25.97;10.13;;;1.80;99.90;;;;;;4974622;28;20217;-74
2023/01/27 00:35:59;;;;;;;26.00;10.87;;;1.80;99.90;;;;;;4975363;28;20609;-74
2023/01/27 00:38:27;;;;;;;24.87;10.77;;;1.80;99.90;;;;;;4974951;28;20573;-74
2023/01/27 00:43:41;;;;;;;28.37;12.03;;;1.80;99.90;;;;;;4974325;28;20204;-74
2023/01/27 00:46:08;;;;;;;28.40;11.33;;;1.90;99.90;;;;;;4975035;28;20218;-74
2023/01/27 00:48:35;;;;;;;30.13;11.03;;;1.80;99.90;;;;;;4974056;28;20206;-74
2023/01/27 00:51:02;;;;;;;29.37;11.47;;;1.80;99.90;;;;;;4975099;28;20209;-74
2023/01/27 00:53:29;;;;;;;28.47;10.97;;;1.70;99.90;;;;;;4974161;28;20213;-74
2023/01/27 00:55:56;;;;;;;33.17;12.67;;;1.90;99.90;;;;;;4974865;28;20202;-74
2023/01/27 00:58:23;;;;;;;31.43;10.73;;;1.90;99.90;;;;;;4974386;28;20204;-74
2023/01/27 01:00:53;;;;;;;30.17;11.80;;;1.80;99.90;;;;;;4975097;28;20221;-74
2023/01/27 01:03:20;;;;;;;32.67;11.23;;;1.90;99.90;;;;;;4974371;28;20652;-74
2023/01/27 01:05:47;;;;;;;29.73;11.00;;;1.90;99.90;;;;;;4974752;28;20214;-74
2023/01/27 01:08:13;;;;;;;33.50;14.73;;;1.90;99.90;;;;;;4973903;28;20210;-74
2023/01/27 01:10:40;;;;;;;31.20;12.20;;;1.80;99.90;;;;;;4974073;28;20206;-74
2023/01/27 01:13:09;;;;;;;28.43;11.50;;;1.90;99.90;;;;;;4974218;28;20228;-74
2023/01/27 01:15:36;;;;;;;29.13;10.80;;;1.90;99.90;;;;;;4974894;28;20193;-73
2023/01/27 01:18:05;;;;;;;31.90;11.23;;;1.90;99.90;;;;;;4974012;28;20633;-76
2023/01/27 01:20:35;;;;;;;35.30;12.13;;;1.80;99.90;;;;;;4974350;28;20202;-76
2023/01/27 01:23:02;;;;;;;31.67;13.03;;;1.90;99.90;;;;;;4973569;28;20577;-76
2023/01/27 01:25:28;;;;;;;32.00;11.30;;;1.90;99.90;;;;;;4974719;28;20667;-77
2023/01/27 01:27:55;;;;;;;29.80;12.90;;;1.90;99.90;;;;;;4974356;28;20207;-77
2023/01/27 01:30:25;;;;;;;39.07;14.20;;;1.90;99.90;;;;;;4974133;28;20209;-76
2023/01/27 01:32:51;;;;;;;32.57;12.47;;;1.90;99.90;;;;;;4964239;28;20213;-76
2023/01/27 01:35:20;;;;;;;26.53;10.60;;;1.90;99.90;;;;;;4955254;28;20206;-78
2023/01/27 01:37:47;;;;;;;30.17;10.33;;;1.90;99.90;;;;;;4967175;28;20202;-77
2023/01/27 01:40:15;;;;;;;30.70;11.43;;;1.90;99.90;;;;;;4973447;28;20559;-77
2023/01/27 01:42:55;;;;;;;27.00;10.67;;;2.00;99.90;;;;;;4973622;28;20201;-77
2023/01/27 01:45:53;;;;;;;28.17;11.13;;;2.00;99.90;;;;;;4973966;28;20222;-77
2023/01/27 01:48:25;;;;;;;24.33;10.60;;;2.00;99.90;;;;;;4895222;29;20710;-77
2023/01/27 01:50:58;;;;;;;26.73;10.77;;;2.00;99.90;;;;;;4959122;28;20208;-77
2023/01/27 01:53:31;;;;;;;24.97;10.03;;;2.00;99.90;;;;;;4969112;28;20652;-77
2023/01/27 01:56:00;;;;;;;29.73;10.70;;;2.00;99.90;;;;;;4973926;28;20216;-77
2023/01/27 01:58:28;;;;;;;25.20;10.77;;;2.00;99.90;;;;;;4974321;28;20209;-77
2023/01/27 02:00:55;;;;;;;26.17;9.73;;;2.00;99.90;;;;;;4973504;28;20233;-77
2023/01/27 02:03:23;;;;;;;26.03;10.73;;;2.00;99.90;;;;;;4973160;28;20648;-77
2023/01/27 02:05:52;;;;;;;30.07;11.90;;;2.10;99.90;;;;;;4969998;28;20226;-77
2023/01/27 02:08:26;;;;;;;25.90;10.73;;;2.00;99.90;;;;;;4968297;28;20285;-77
2023/01/27 02:10:53;;;;;;;26.27;10.17;;;2.00;99.90;;;;;;4968823;28;20686;-77
2023/01/27 02:13:20;;;;;;;28.77;11.00;;;2.10;99.90;;;;;;4973420;28;20202;-77
2023/01/27 02:15:47;;;;;;;30.00;10.63;;;2.10;99.90;;;;;;4973806;28;20678;-76
2023/01/27 02:18:14;;;;;;;24.57;10.40;;;2.00;99.90;;;;;;4973461;28;20201;-77
2023/01/27 02:20:44;;;;;;;25.77;10.70;;;2.00;99.90;;;;;;4972985;28;20346;-76
2023/01/27 02:23:19;;;;;;;27.80;10.37;;;2.10;99.90;;;;;;4973429;28;20204;-76
2023/01/27 02:25:54;;;;;;;23.57;9.53;;;2.10;99.90;;;;;;4978021;28;20225;-76
2023/01/27 02:28:21;;;;;;;31.27;10.47;;;2.00;99.90;;;;;;4965560;28;20208;-77
2023/01/27 02:30:48;;;;;;;25.30;10.17;;;2.00;99.90;;;;;;4972879;28;20202;-77
2023/01/27 02:33:15;;;;;;;25.53;9.87;;;2.00;99.90;;;;;;4973112;28;20212;-77
2023/01/27 02:35:49;;;;;;;25.03;9.73;;;2.00;99.90;;;;;;4972995;28;20206;-77
2023/01/27 02:38:18;;;;;;;25.60;9.80;;;2.10;99.90;;;;;;4957338;28;20210;-77
2023/01/27 02:40:46;;;;;;;22.73;9.33;;;2.00;99.90;;;;;;4969724;28;20209;-77
2023/01/27 02:43:15;;;;;;;24.07;10.57;;;2.10;99.90;;;;;;4970088;28;20563;-77
2023/01/27 02:45:42;;;;;;;24.57;9.87;;;2.00;99.90;;;;;;4972427;28;20214;-74
2023/01/27 02:48:08;;;;;;;26.33;10.60;;;2.10;99.90;;;;;;4972296;28;20209;-74
2023/01/27 02:50:36;;;;;;;26.90;10.10;;;2.10;99.90;;;;;;4972603;28;20216;-74
2023/01/27 02:53:02;;;;;;;25.00;9.70;;;2.10;99.90;;;;;;4972852;28;20876;-74
2023/01/27 02:55:29;;;;;;;24.70;9.90;;;2.10;99.90;;;;;;4995323;23;20234;-71
2023/01/27 02:57:56;;;;;;;26.03;10.93;;;2.10;99.90;;;;;;4980622;28;20197;-71
2023/01/27 03:00:24;;;;;;;26.67;9.87;;;2.10;99.90;;;;;;4975945;28;20202;-71
2023/01/27 03:02:51;;;;;;;26.53;11.13;;;2.10;99.90;;;;;;4954715;28;20197;-71
2023/01/27 03:05:18;;;;;;;26.40;9.90;;;2.10;99.90;;;;;;4957601;28;20217;-71
2023/01/27 03:07:44;;;;;;;25.23;10.03;;;2.10;99.90;;;;;;4956957;28;20221;-71
2023/01/27 03:10:11;;;;;;;23.73;10.07;;;2.10;99.90;;;;;;4960355;28;20206;-71
2023/01/27 03:12:38;;;;;;;23.67;10.47;;;2.20;99.90;;;;;;4963620;28;20206;-71
2023/01/27 03:18:12;;;;;;;22.33;10.07;;;2.20;99.90;;;;;;4960894;28;20272;-71
2023/01/27 03:20:39;;;;;;;22.00;9.33;;;2.30;99.90;;;;;;4958672;28;20564;-71
2023/01/27 03:23:06;;;;;;;21.23;9.70;;;2.20;99.90;;;;;;4953652;28;20212;-71
2023/01/27 03:25:32;;;;;;;22.67;10.00;;;2.30;99.90;;;;;;4964224;28;20202;-71
2023/01/27 03:27:59;;;;;;;20.17;9.13;;;2.20;99.90;;;;;;4959426;28;20233;-71
2023/01/27 03:30:26;;;;;;;21.07;9.60;;;2.40;99.90;;;;;;4962381;28;20202;-71
2023/01/27 03:32:55;;;;;;;21.30;9.77;;;2.30;99.90;;;;;;4964006;28;20232;-71
2023/01/27 03:35:22;;;;;;;23.47;9.97;;;2.30;99.90;;;;;;4970884;28;20205;-71
2023/01/27 03:46:18;;;;;;;22.20;9.73;;;2.30;99.90;;;;;;4962099;28;20277;-71
2023/01/27 03:48:50;;;;;;;23.57;9.13;;;2.30;99.90;;;;;;4957229;28;20209;-71
2023/01/27 03:51:17;;;;;;;19.70;8.60;;;2.30;99.90;;;;;;4970392;28;20194;-71
2023/01/27 03:53:44;;;;;;;18.80;8.67;;;2.20;99.90;;;;;;4956306;28;20210;-71
2023/01/27 03:56:11;;;;;;;19.97;8.77;;;2.20;99.90;;;;;;4961714;28;20202;-71
2023/01/27 03:58:39;;;;;;;18.37;8.30;;;2.30;99.90;;;;;;4964350;28;20202;-71
2023/01/27 04:01:08;;;;;;;21.37;9.13;;;2.30;99.90;;;;;;4969233;28;20221;-71
2023/01/27 04:09:08;;;;;;;20.90;9.00;;;2.30;99.90;;;;;;4972261;28;20212;-71
2023/01/27 04:14:20;;;;;;;25.97;12.17;;;2.30;99.90;;;;;;4962064;28;20551;-71
2023/01/27 04:16:47;;;;;;;22.47;9.13;;;2.30;99.90;;;;;;4973729;28;20213;-71
2023/01/27 04:19:14;;;;;;;22.73;10.00;;;2.30;99.90;;;;;;4966566;28;20627;-71
2023/01/27 04:21:42;;;;;;;20.43;8.93;;;2.30;99.90;;;;;;4975403;28;20209;-71
2023/01/27 04:24:21;;;;;;;22.47;9.43;;;2.30;99.90;;;;;;4975030;28;20210;-71
2023/01/27 04:26:49;;;;;;;22.53;9.27;;;2.30;99.90;;;;;;4974465;28;20230;-71
2023/01/27 04:29:16;;;;;;;18.97;8.53;;;2.40;99.90;;;;;;4975905;28;20217;-71
2023/01/27 04:31:43;;;;;;;20.97;9.03;;;2.40;99.90;;;;;;4972250;28;20228;-72
2023/01/27 04:34:11;;;;;;;20.10;8.80;;;2.40;99.90;;;;;;4959839;28;20206;-71
2023/01/27 04:36:38;;;;;;;21.63;8.47;;;2.50;99.90;;;;;;4966161;28;20202;-71
2023/01/27 04:39:06;;;;;;;20.10;9.03;;;2.40;99.90;;;;;;4975842;28;20210;-71
2023/01/27 04:41:33;;;;;;;21.10;8.20;;;2.40;99.90;;;;;;4975477;28;20201;-71
2023/01/27 04:43:59;;;;;;;20.17;8.73;;;2.40;99.90;;;;;;4974485;28;20209;-70
2023/01/27 04:46:26;;;;;;;19.60;8.23;;;2.40;99.90;;;;;;4975428;28;20232;-71
2023/01/27 04:48:53;;;;;;;22.23;9.47;;;2.40;99.90;;;;;;4975280;28;20217;-71
2023/01/27 04:51:20;;;;;;;22.87;10.27;;;2.50;99.90;;;;;;4975188;28;20570;-71
2023/01/27 04:53:47;;;;;;;21.57;9.60;;;2.50;99.90;;;;;;4975154;28;20651;-71
2023/01/27 04:56:23;;;;;;;22.43;9.10;;;2.40;99.90;;;;;;4975290;28;20217;-71
2023/01/27 04:58:50;;;;;;;20.60;9.20;;;2.50;99.90;;;;;;4975237;28;20573;-72
2023/01/27 05:01:17;;;;;;;25.20;11.10;;;2.40;99.90;;;;;;4974681;28;20210;-71
2023/01/27 05:03:44;;;;;;;20.70;8.80;;;2.40;99.90;;;;;;4954942;29;20210;-71
2023/01/27 05:06:11;;;;;;;20.00;8.93;;;2.40;99.90;;;;;;4973012;28;20644;-71
2023/01/27 05:08:39;;;;;;;23.10;10.47;;;2.40;99.90;;;;;;4974733;28;20205;-71
2023/01/27 05:11:06;;;;;;;21.30;8.90;;;2.40;99.90;;;;;;4974203;28;20213;-71
2023/01/27 05:13:34;;;;;;;20.23;7.97;;;2.50;99.90;;;;;;4974429;28;20201;-71
2023/01/27 05:16:11;;;;;;;22.50;8.93;;;2.40;99.90;;;;;;4974512;28;20667;-71
2023/01/27 05:18:38;;;;;;;17.83;8.37;;;2.40;99.90;;;;;;4975046;28;20213;-71
2023/01/27 05:21:05;;;;;;;18.37;8.17;;;2.50;99.90;;;;;;4974878;28;20206;-71
2023/01/27 05:23:35;;;;;;;16.10;6.67;;;2.50;99.90;;;;;;4974102;28;20214;-71
2023/01/27 05:26:08;;;;;;;17.93;7.63;;;2.40;99.90;;;;;;4974826;28;20206;-71
2023/01/27 05:28:37;;;;;;;17.60;7.33;;;2.50;99.90;;;;;;4973787;28;20257;-71
2023/01/27 05:31:06;;;;;;;17.27;7.57;;;2.60;99.90;;;;;;4974721;28;20209;-71
2023/01/27 05:33:33;;;;;;;18.53;7.90;;;2.60;99.90;;;;;;4973283;28;20213;-71
2023/01/27 05:36:01;;;;;;;17.83;8.07;;;2.60;99.90;;;;;;4974289;28;20206;-71
2023/01/27 05:38:29;;;;;;;20.40;7.67;;;2.60;99.90;;;;;;4974196;28;20202;-70
2023/01/27 05:41:00;;;;;;;17.17;7.10;;;2.70;99.90;;;;;;4973994;28;20217;-71
2023/01/27 05:43:28;;;;;;;15.17;6.27;;;2.70;99.90;;;;;;4973954;28;20210;-70
2023/01/27 05:46:04;;;;;;;15.40;6.77;;;2.70;99.90;;;;;;4974711;28;20214;-71
2023/01/27 05:48:31;;;;;;;15.00;6.23;;;2.70;99.90;;;;;;4974337;28;20288;-71
2023/01/27 05:50:58;;;;;;;15.67;6.40;;;2.70;99.90;;;;;;4974348;28;20248;-71
2023/01/27 05:53:25;;;;;;;15.47;6.53;;;2.60;99.90;;;;;;4973513;28;20205;-71
2023/01/27 05:55:52;;;;;;;12.43;5.93;;;2.70;99.90;;;;;;4974114;28;20218;-71
2023/01/27 05:58:20;;;;;;;12.23;5.80;;;2.60;99.90;;;;;;4973315;28;20205;-71
2023/01/27 06:00:47;;;;;;;16.10;6.43;;;2.60;99.90;;;;;;4974209;28;20198;-70
2023/01/27 06:03:15;;;;;;;13.97;6.23;;;2.60;99.90;;;;;;4973715;28;20205;-70
2023/01/27 06:05:53;;;;;;;13.07;5.77;;;2.70;99.90;;;;;;4973686;28;20202;-70
2023/01/27 06:08:21;;;;;;;14.27;6.07;;;2.60;99.90;;;;;;4973897;28;20252;-70
2023/01/27 06:10:48;;;;;;;13.67;6.17;;;2.70;99.90;;;;;;4973745;28;20210;-70
2023/01/27 06:13:15;;;;;;;13.77;5.83;;;2.70;99.90;;;;;;4973168;28;20205;-70
2023/01/27 06:15:43;;;;;;;10.93;4.77;;;2.70;99.90;;;;;;4974065;28;20563;-70
2023/01/27 06:18:10;;;;;;;11.60;5.20;;;2.70;99.90;;;;;;4973120;28;20202;-70
2023/01/27 06:20:38;;;;;;;11.70;5.70;;;2.70;99.90;;;;;;4976850;28;20210;-70
2023/01/27 06:23:05;;;;;;;13.20;5.80;;;2.70;99.90;;;;;;4974627;28;20217;-70
2023/01/27 06:25:37;;;;;;;11.90;5.10;;;2.70;99.90;;;;;;4975993;28;20245;-70
2023/01/27 06:28:04;;;;;;;12.40;5.77;;;2.80;99.90;;;;;;4980965;28;20279;-70
2023/01/27 06:30:31;;;;;;;11.40;5.27;;;2.80;99.90;;;;;;4974661;28;20198;-70
2023/01/27 06:32:57;;;;;;;11.23;4.70;;;2.80;99.90;;;;;;4974815;28;20206;-70
2023/01/27 06:35:24;;;;;;;11.80;5.03;;;2.80;99.90;;;;;;4976347;28;20198;-70
2023/01/27 06:37:52;;;;;;;11.37;5.23;;;2.80;99.90;;;;;;4978666;28;20682;-70
2023/01/27 06:40:19;;;;;;;10.50;5.10;;;2.80;99.90;;;;;;4974720;28;20568;-70
2023/01/27 06:42:46;;;;;;;9.67;4.20;;;2.90;99.90;;;;;;4976725;28;20197;-70
2023/01/27 06:45:13;;;;;;;8.93;4.30;;;2.90;99.90;;;;;;4979254;28;20206;-70
2023/01/27 06:47:40;;;;;;;12.77;5.47;;;2.80;99.90;;;;;;4974403;28;20225;-70
2023/01/27 06:50:09;;;;;;;9.30;4.33;;;2.80;99.90;;;;;;4974474;28;20220;-70
2023/01/27 06:52:36;;;;;;;10.00;4.77;;;2.80;99.90;;;;;;4981537;28;20213;-70
2023/01/27 06:55:05;;;;;;;8.27;4.33;;;2.80;99.90;;;;;;4975161;28;20576;-70
2023/01/27 06:57:32;;;;;;;9.13;4.87;;;2.80;99.90;;;;;;4977343;28;20601;-70
2023/01/27 06:59:59;;;;;;;7.87;3.67;;;2.80;99.90;;;;;;4980430;28;20205;-70
2023/01/27 07:02:26;;;;;;;9.07;4.00;;;2.80;99.90;;;;;;4977897;28;20213;-70
2023/01/27 07:04:52;;;;;;;7.23;3.43;;;2.90;99.90;;;;;;4979830;28;20217;-70
2023/01/27 07:07:19;;;;;;;7.50;3.33;;;2.80;99.90;;;;;;4979140;28;20226;-70
2023/01/27 07:09:46;;;;;;;4.00;2.63;;;2.90;99.90;;;;;;4977340;28;20304;-69
2023/01/27 07:12:14;;;;;;;5.73;3.23;;;2.90;99.90;;;;;;4973635;28;20212;-70
2023/01/27 07:14:41;;;;;;;5.87;3.00;;;3.00;99.90;;;;;;4978525;28;20209;-71
2023/01/27 07:17:08;;;;;;;7.43;3.53;;;2.90;99.90;;;;;;4977948;28;20208;-70
2023/01/27 07:19:35;;;;;;;9.47;4.07;;;2.90;99.90;;;;;;4973956;28;20569;-70
2023/01/27 07:22:02;;;;;;;6.50;3.40;;;2.90;99.90;;;;;;4977197;28;20223;-71
2023/01/27 07:24:29;;;;;;;4.87;2.80;;;2.80;99.90;;;;;;4978628;28;20217;-70
2023/01/27 07:26:57;;;;;;;4.50;2.90;;;2.80;99.90;;;;;;4976780;28;20206;-70
2023/01/27 07:29:25;;;;;;;5.13;3.13;;;2.90;99.90;;;;;;4972709;28;20216;-70
2023/01/27 07:31:52;;;;;;;4.93;3.00;;;2.80;99.90;;;;;;4982864;28;20201;-70
2023/01/27 07:34:18;;;;;;;5.77;2.97;;;2.80;99.90;;;;;;4973432;28;20233;-71
2023/01/27 07:36:45;;;;;;;4.33;2.73;;;2.90;99.90;;;;;;4981388;28;20198;-70
2023/01/27 07:39:12;;;;;;;3.47;2.27;;;2.90;99.90;;;;;;4983158;28;20202;-70
2023/01/27 07:41:39;;;;;;;4.00;2.70;;;2.90;99.90;;;;;;4980302;28;20572;-70
2023/01/27 07:44:06;;;;;;;3.97;2.17;;;2.90;99.90;;;;;;4977264;28;20209;-70
2023/01/27 07:46:35;;;;;;;4.23;2.50;;;2.90;99.90;;;;;;4984741;28;20229;-70
2023/01/27 07:49:04;;;;;;;3.10;1.77;;;2.90;99.90;;;;;;4981531;28;20222;-70
2023/01/27 07:51:31;;;;;;;3.33;1.73;;;2.90;99.90;;;;;;4977621;28;20209;-70
2023/01/27 07:53:58;;;;;;;4.77;2.20;;;2.90;99.90;;;;;;4980423;28;20405;-70
2023/01/27 07:56:24;;;;;;;4.13;2.03;;;2.90;99.90;;;;;;4982903;28;20610;-69
2023/01/27 07:58:54;;;;;;;3.57;2.33;;;2.90;99.90;;;;;;4976925;28;20209;-68
2023/01/27 08:01:21;;;;;;;6.33;2.30;;;2.90;99.90;;;;;;4975794;28;20201;-68
2023/01/27 08:03:49;;;;;;;2.43;1.80;;;2.80;99.90;;;;;;4973645;28;20201;-67
2023/01/27 08:06:16;;;;;;;4.30;2.10;;;2.90;99.90;;;;;;4976383;28;20202;-68
2023/01/27 08:08:43;;;;;;;3.87;2.00;;;2.90;99.90;;;;;;4977113;28;20230;-68
2023/01/27 08:11:13;;;;;;;2.93;1.97;;;2.90;99.90;;;;;;4983947;28;20213;-68
2023/01/27 08:13:40;;;;;;;2.80;2.20;;;2.90;99.90;;;;;;4979981;28;20213;-67
2023/01/27 08:16:10;;;;;;;3.67;2.13;;;2.90;99.90;;;;;;4978018;28;20229;-67
2023/01/27 08:18:37;;;;;;;3.07;1.87;;;2.80;99.90;;;;;;4977537;28;20202;-67
2023/01/27 08:21:07;;;;;;;4.33;2.30;;;2.90;99.90;;;;;;4979132;28;20578;-67
2023/01/27 08:23:34;;;;;;;5.20;2.80;;;2.90;99.90;;;;;;4977487;28;20606;-68
2023/01/27 08:26:03;;;;;;;3.43;1.83;;;3.00;99.90;;;;;;4976277;28;20209;-67
2023/01/27 08:28:32;;;;;;;4.70;2.90;;;3.00;99.90;;;;;;4980148;28;20238;-68
2023/01/27 08:31:04;;;;;;;4.40;2.53;;;3.00;99.90;;;;;;4973190;28;20260;-68
2023/01/27 08:33:31;;;;;;;7.50;2.53;;;3.10;99.90;;;;;;4976626;28;20209;-68
2023/01/27 08:36:03;;;;;;;3.80;2.17;;;3.10;99.90;;;;;;4982436;28;20205;-68
2023/01/27 08:38:33;;;;;;;5.37;2.30;;;3.10;99.90;;;;;;4977545;28;20201;-68
2023/01/27 08:41:04;;;;;;;3.77;1.90;;;3.20;99.90;;;;;;4970401;28;20213;-68
2023/01/27 08:43:31;;;;;;;4.10;1.70;;;3.20;99.90;;;;;;4980120;28;20197;-68
2023/01/27 08:45:59;;;;;;;3.47;1.73;;;3.20;99.90;;;;;;4979484;28;20202;-68
2023/01/27 08:48:27;;;;;;;4.93;2.47;;;3.30;99.90;;;;;;4974177;28;20284;-68
2023/01/27 08:50:53;;;;;;;3.57;2.10;;;3.30;99.90;;;;;;4979422;28;20205;-68
2023/01/27 08:53:21;;;;;;;4.90;1.80;;;3.40;99.90;;;;;;4981111;28;20225;-68
2023/01/27 08:55:49;;;;;;;4.90;2.10;;;3.40;99.90;;;;;;4976871;28;20297;-68
2023/01/27 08:58:16;;;;;;;2.20;1.67;;;3.40;99.90;;;;;;4976881;28;20605;-68
2023/01/27 09:00:43;;;;;;;2.97;1.47;;;3.50;99.90;;;;;;4984547;28;20198;-68
2023/01/27 09:03:10;;;;;;;5.43;1.50;;;3.50;99.90;;;;;;4976941;28;20213;-68
2023/01/27 09:05:38;;;;;;;3.63;1.57;;;3.50;99.90;;;;;;4976533;28;20213;-68
2023/01/27 09:08:05;;;;;;;1.47;1.37;;;3.50;99.90;;;;;;4978814;28;20226;-68
2023/01/27 09:10:32;;;;;;;3.40;1.77;;;3.50;99.90;;;;;;4980172;28;20213;-68
2023/01/27 09:13:00;;;;;;;2.03;1.10;;;3.50;99.90;;;;;;4974111;28;20209;-68
2023/01/27 09:15:27;;;;;;;2.20;1.47;;;3.50;99.90;;;;;;4982717;28;20209;-68
2023/01/27 09:17:54;;;;;;;3.03;1.33;;;3.50;99.90;;;;;;4979351;28;20278;-68
2023/01/27 09:20:22;;;;;;;2.73;1.37;;;3.50;99.90;;;;;;4975542;28;20205;-68
2023/01/27 09:22:49;;;;;;;2.70;1.20;;;3.50;99.90;;;;;;4982756;28;20197;-68
2023/01/27 09:25:17;;;;;;;1.23;1.13;;;3.50;99.90;;;;;;4981048;28;20574;-68
2023/01/27 09:27:44;;;;;;;1.57;1.47;;;3.50;99.90;;;;;;4975281;28;20205;-68
2023/01/27 09:30:14;;;;;;;3.03;1.50;;;3.50;99.90;;;;;;4974099;28;20205;-68
2023/01/27 09:32:42;;;;;;;1.50;0.77;;;3.50;99.90;;;;;;4974482;28;20671;-68
2023/01/27 09:35:10;;;;;;;1.90;1.20;;;3.50;99.90;;;;;;4975990;28;20224;-68
2023/01/27 09:37:41;;;;;;;2.43;1.30;;;3.60;99.90;;;;;;4973359;28;20209;-68
2023/01/27 09:40:17;;;;;;;1.30;1.00;;;3.60;99.90;;;;;;4980433;28;20511;-68
2023/01/27 09:43:21;;;;;;;1.40;1.27;;;3.60;99.90;;;;;;4977237;28;20201;-68
2023/01/27 09:46:11;;;;;;;1.97;1.20;;;3.60;99.90;;;;;;4968264;28;20208;-68
2023/01/27 09:49:01;;;;;;;2.27;1.20;;;3.70;99.90;;;;;;4973086;28;20218;-68
2023/01/27 09:51:43;;;;;;;1.93;1.10;;;3.70;99.90;;;;;;4970507;28;20213;-68
2023/01/27 09:54:33;;;;;;;9.83;3.63;;;3.70;99.90;;;;;;4979406;28;20305;-68
2023/01/27 09:57:09;;;;;;;3.97;1.67;;;3.70;99.90;;;;;;4973268;28;20217;-68
2023/01/27 09:59:57;;;;;;;2.43;1.10;;;3.80;99.90;;;;;;4972490;28;20209;-68
2023/01/27 10:02:48;;;;;;;1.40;1.07;;;3.80;99.90;;;;;;4972750;28;20619;-68
2023/01/27 10:05:35;;;;;;;1.33;1.07;;;3.80;99.90;;;;;;4973026;28;20202;-68
2023/01/27 10:08:17;;;;;;;3.50;1.43;;;3.80;99.90;;;;;;4972119;28;20702;-68
2023/01/27 10:10:59;;;;;;;1.70;1.60;;;3.80;99.90;;;;;;4972538;28;20206;-68
2023/01/27 10:13:35;;;;;;;2.57;1.47;;;3.80;99.90;;;;;;4978930;28;20205;-70
2023/01/27 10:16:16;;;;;;;4.73;1.10;;;3.80;99.90;;;;;;4972281;28;20229;-70
2023/01/27 10:19:01;;;;;;;1.73;0.97;;;3.90;99.90;;;;;;4977857;28;20621;-68
2023/01/27 10:21:37;;;;;;;1.43;0.90;;;3.90;99.90;;;;;;4979494;28;20387;-68
2023/01/27 10:24:16;;;;;;;1.23;1.13;;;3.90;99.90;;;;;;4975691;28;20614;-67
2023/01/27 10:26:49;;;;;;;2.20;1.40;;;3.90;99.90;;;;;;4972295;28;20221;-68
2023/01/27 10:29:23;;;;;;;5.30;1.23;;;3.90;99.90;;;;;;4972347;28;20238;-68
2023/01/27 10:31:57;;;;;;;1.80;1.00;;;3.90;99.90;;;;;;4964751;28;20255;-68
2023/01/27 10:34:35;;;;;;;3.20;1.33;;;3.80;99.90;;;;;;4969894;28;20212;-68
2023/01/27 10:37:21;;;;;;;1.90;1.57;;;3.90;99.90;;;;;;4971153;28;20205;-69
2023/01/27 10:39:56;;;;;;;2.30;1.30;;;3.90;99.90;;;;;;4964454;28;20212;-68
2023/01/27 10:42:30;;;;;;;2.27;0.87;;;3.90;99.90;;;;;;4977091;28;20205;-68
2023/01/27 10:45:16;;;;;;;1.70;1.40;;;3.90;99.90;;;;;;4972101;28;20201;-68
2023/01/27 10:48:00;;;;;;;3.73;1.60;;;3.90;99.90;;;;;;4971274;28;20667;-68
2023/01/27 10:50:33;;;;;;;1.10;1.00;;;4.00;99.90;;;;;;4969317;28;20205;-68
2023/01/27 10:53:07;;;;;;;1.70;1.00;;;4.00;99.90;;;;;;4970369;28;20661;-68
2023/01/27 10:55:41;;;;;;;1.07;0.90;;;3.90;99.90;;;;;;4971843;28;20289;-68
2023/01/27 10:58:16;;;;;;;1.97;0.77;;;4.00;99.90;;;;;;4973813;28;20296;-68
2023/01/27 11:00:45;;;;;;;1.40;1.00;;;4.00;99.90;;;;;;4970562;28;20205;-70
2023/01/27 11:03:20;;;;;;;2.30;1.63;;;4.00;99.90;;;;;;4971628;28;20260;-70
2023/01/27 11:05:52;;;;;;;1.53;1.43;;;4.00;99.90;;;;;;4977798;28;20589;-70
2023/01/27 11:08:23;;;;;;;3.27;1.27;;;4.00;99.90;;;;;;4969850;28;20644;-68
2023/01/27 11:13:40;;;;;;;2.60;1.13;;;4.00;99.90;;;;;;4975582;28;20208;-68
2023/01/27 11:16:15;;;;;;;3.53;1.37;;;3.90;99.90;;;;;;4978113;28;20280;-71
2023/01/27 11:18:44;;;;;;;2.93;1.30;;;3.90;99.90;;;;;;4979688;28;20267;-71
2023/01/27 11:21:18;;;;;;;1.27;0.93;;;3.90;99.90;;;;;;4975483;28;20213;-68
2023/01/27 11:23:50;;;;;;;1.67;0.77;;;3.90;99.90;;;;;;4981213;28;20236;-68
2023/01/27 11:26:29;;;;;;;1.37;1.00;;;4.00;99.90;;;;;;4980105;28;20205;-70
2023/01/27 11:29:05;;;;;;;2.73;1.77;;;4.00;99.90;;;;;;4977739;28;20283;-69
2023/01/27 11:31:40;;;;;;;1.77;0.97;;;4.00;99.90;;;;;;4975899;28;20206;-70
2023/01/27 11:34:13;;;;;;;1.70;1.13;;;4.00;99.90;;;;;;4976096;28;20209;-68
2023/01/27 11:36:42;;;;;;;0.80;0.80;;;4.00;99.90;;;;;;4975471;28;20209;-70
2023/01/27 11:39:10;;;;;;;1.67;0.90;;;4.00;99.90;;;;;;4977294;28;20256;-70
2023/01/27 11:41:41;;;;;;;1.67;1.20;;;4.00;99.90;;;;;;4975028;28;20621;-68
2023/01/27 11:44:20;;;;;;;1.67;1.30;;;4.00;99.90;;;;;;4975400;28;20210;-70
2023/01/27 11:46:48;;;;;;;2.90;1.53;;;4.00;99.90;;;;;;4980775;28;20652;-70
2023/01/27 11:49:19;;;;;;;2.47;1.00;;;3.90;99.90;;;;;;4975232;28;20237;-70
2023/01/27 11:51:48;;;;;;;1.40;1.00;;;3.90;99.90;;;;;;4974989;28;20229;-69
2023/01/27 11:54:20;;;;;;;1.27;0.97;;;3.90;99.90;;;;;;4975083;28;20660;-69
2023/01/27 11:56:49;;;;;;;1.63;1.00;;;3.90;99.90;;;;;;4975450;28;20210;-70
2023/01/27 11:59:21;;;;;;;2.07;1.13;;;3.80;99.90;;;;;;4970635;28;20210;-70
2023/01/27 12:01:52;;;;;;;3.23;1.80;;;3.90;99.90;;;;;;4979084;28;20648;-68
2023/01/27 12:04:24;;;;;;;4.33;1.93;;;3.90;99.90;;;;;;4973149;28;20244;-68
2023/01/27 12:06:59;;;;;;;2.27;0.90;;;3.90;99.90;;;;;;4974100;28;20553;-71
2023/01/27 12:09:35;;;;;;;1.43;0.87;;;3.90;99.90;;;;;;4975328;28;20267;-71
2023/01/27 12:12:20;;;;;;;1.53;0.80;;;3.90;99.90;;;;;;4974784;28;20197;-71
2023/01/27 12:14:48;;;;;;;1.10;0.87;;;3.90;99.90;;;;;;4975356;28;20209;-68
2023/01/27 12:17:22;;;;;;;2.20;0.87;;;4.00;99.90;;;;;;4971746;28;20615;-70
2023/01/27 12:19:50;;;;;;;2.80;0.60;;;4.10;99.90;;;;;;4956106;28;20293;-70
2023/01/27 12:22:25;;;;;;;1.43;0.93;;;4.10;99.90;;;;;;4974942;28;20725;-68
2023/01/27 12:24:55;;;;;;;2.37;1.10;;;4.10;99.90;;;;;;4954528;29;20293;-68
2023/01/27 12:27:25;;;;;;;1.67;1.00;;;4.10;99.90;;;;;;4963350;28;20301;-69
2023/01/27 12:29:55;;;;;;;2.00;1.13;;;4.10;99.90;;;;;;4975315;28;20280;-71
2023/01/27 12:32:25;;;;;;;2.03;1.40;;;4.10;99.90;;;;;;4974282;28;20256;-69
2023/01/27 12:34:55;;;;;;;4.00;1.40;;;4.00;99.90;;;;;;4974718;28;20293;-70
2023/01/27 12:37:34;;;;;;;1.87;1.17;;;4.00;99.90;;;;;;4974534;28;20186;-70
2023/01/27 12:40:04;;;;;;;0.97;0.90;;;4.00;99.90;;;;;;4973991;28;20206;-68
2023/01/27 12:42:36;;;;;;;3.40;1.23;;;4.00;99.90;;;;;;4974710;28;20202;-69
2023/01/27 12:45:22;;;;;;;1.70;0.97;;;4.00;99.90;;;;;;4975050;28;20706;-69
2023/01/27 12:47:57;;;;;;;1.80;0.80;;;4.00;99.90;;;;;;4974296;28;20300;-69
2023/01/27 12:50:26;;;;;;;1.43;0.93;;;3.90;99.90;;;;;;4974004;28;20328;-70
2023/01/27 12:53:05;;;;;;;5.00;1.60;;;3.90;99.90;;;;;;4973113;28;20237;-70
2023/01/27 12:55:33;;;;;;;2.50;0.90;;;3.90;99.90;;;;;;4974937;28;20932;-70
2023/01/27 12:58:01;;;;;;;0.57;0.57;;;3.90;99.90;;;;;;4974538;28;20293;-70
2023/01/27 13:00:29;;;;;;;1.20;0.80;;;3.90;99.90;;;;;;4974840;28;20232;-70
2023/01/27 13:03:05;;;;;;;0.57;0.50;;;3.90;99.90;;;;;;4974608;28;20542;-68
2023/01/27 13:05:37;;;;;;;1.83;0.83;;;3.80;99.90;;;;;;4974505;28;20244;-70
2023/01/27 13:08:12;;;;;;;3.80;1.10;;;3.90;99.90;;;;;;4973664;28;20284;-70
2023/01/27 13:10:50;;;;;;;0.70;0.50;;;3.90;99.90;;;;;;4974291;28;20225;-68
2023/01/27 13:13:23;;;;;;;0.67;0.53;;;3.80;99.90;;;;;;4974333;28;20626;-68
2023/01/27 13:15:55;;;;;;;1.37;0.97;;;3.90;99.90;;;;;;4974588;28;20249;-69
2023/01/27 13:18:22;;;;;;;2.30;1.30;;;3.80;99.90;;;;;;4974355;28;20731;-69
2023/01/27 13:20:53;;;;;;;3.10;0.77;;;3.90;99.90;;;;;;4974124;28;20300;-71
2023/01/27 13:23:23;;;;;;;2.20;0.90;;;3.90;99.90;;;;;;4985491;28;20715;-70
2023/01/27 13:25:53;;;;;;;1.80;0.83;;;3.90;99.90;;;;;;4980357;28;20202;-70
2023/01/27 13:28:25;;;;;;;0.90;0.70;;;4.00;99.90;;;;;;4973762;28;20197;-68
2023/01/27 13:30:58;;;;;;;2.10;0.90;;;3.90;99.90;;;;;;4974198;28;20256;-69
2023/01/27 13:33:42;;;;;;;2.63;1.07;;;3.90;99.90;;;;;;4973003;28;20707;-71
2023/01/27 13:36:17;;;;;;;5.80;1.10;;;3.90;99.90;;;;;;4973930;28;20202;-68
2023/01/27 13:38:52;;;;;;;2.63;1.80;;;3.90;99.90;;;;;;4974026;28;20201;-67